Flight Track Log - Related Links

Times and Time Zones

All times are in EDT time to prevent confusion due to time zone crossing. See the TAM3858 flight status page for this flight to view local times or setup timezone preferences in your user account.

Time Position Orientation Groundspeed Altitude Reporting Facility
EDT Latitude Longitude Course Direction KTS MPH feet Rate Location/Type
Thu 03:06:04 PM -29.9920 -51.1770 73° East 10 12  Level FlightAware ADS-B
Thu 03:06:51 PM -29.9920 -51.1780 270° West 84 Level FlightAware ADS-B
Thu 03:09:00 PM -29.7841 -51.0807 22° Northeast  Level Estimated
Thu 03:10:00 PM -29.6874 -51.0355 22° Northeast  Level Estimated
Thu 03:10:08 PM -29.9920 -51.1770 22° Northeast 17 20  Level FlightAware ADS-B
Thu 03:12:00 PM -29.8115 -51.0925 22° Northeast  Level Estimated
Thu 03:12:09 PM -29.9930 -51.1810 22° Northeast 22 25  Level FlightAware ADS-B
Thu 03:14:00 PM -29.8142 -51.0971 22° Northeast  Level Estimated
Thu 03:14:01 PM -29.9940 -51.1820 22° Northeast 28 32  Level FlightAware ADS-B
Thu 03:16:00 PM -29.8023 -51.0921 22° Northeast  Level Estimated
Thu 03:17:00 PM -29.7056 -51.0468 22° Northeast  Level Estimated
Thu 03:17:10 PM -29.9940 -51.1800 22° Northeast 72 83  Level FlightAware ADS-B
Thu 03:17:33 PM -29.9950 -51.1650 94° East 160 184 1,277 Level FlightAware ADS-B
Thu 03:17:57 PM -29.9950 -51.1450 90° East 158 182 1,000 1,895 Climbing FlightAware ADS-B
Thu 03:18:30 PM -29.9970 -51.1130 94° East 197 227 1,800 1,377 Climbing FlightAware ADS-B
Thu 03:18:58 PM -29.9980 -51.0800 92° East 241 277 2,400 2,108 Climbing FlightAware ADS-B
Thu 03:19:44 PM -29.9770 -51.0230 67° East 283 326 4,400 2,897 Climbing FlightAware ADS-B
Thu 03:19:56 PM -29.9620 -51.0150 25° Northeast 276 318 5,200 3,750 Climbing FlightAware ADS-B
Thu 03:20:24 PM -29.9300 -51.0240 346° North 251 289 6,900 3,628 Climbing FlightAware ADS-B
Thu 03:20:39 PM -29.9190 -51.0380 312° West 243 280 7,800 3,409 Climbing FlightAware ADS-B
Thu 03:21:08 PM -29.8990 -51.0680 308° West 243 280 9,400 2,522 Climbing FlightAware ADS-B
Thu 03:21:48 PM -29.8690 -51.1080 311° West 269 310 10,700 2,071 Climbing FlightAware ADS-B
Thu 03:22:32 PM -29.8290 -51.1590 312° West 294 338 12,300 2,096 Climbing FlightAware ADS-B
Thu 03:23:11 PM -29.7860 -51.1940 325° Northwest 318 366 13,600 2,071 Climbing FlightAware ADS-B
Thu 03:23:56 PM -29.7240 -51.2340 331° Northwest 341 392 15,200 2,169 Climbing FlightAware ADS-B
Thu 03:24:34 PM -29.6640 -51.2530 345° North 369 425 16,600 2,077 Climbing FlightAware ADS-B
Thu 03:25:14 PM -29.5910 -51.2480 North 392 451 17,900 2,281 Climbing FlightAware ADS-B
Thu 03:27:00 PM -29.4306 -51.1629 25° Northeast  Level Estimated
Thu 03:28:00 PM -29.3398 -51.1148 25° Northeast  Level Estimated
Thu 03:28:15 PM -29.2700 -51.2420 25° Northeast 358 412 25,000  Level FlightAware ADS-B
Thu 03:28:52 PM -29.2080 -51.2520 352° North 365 420 25,800 766 Climbing FlightAware ADS-B
Thu 03:29:49 PM -29.1090 -51.2440 North 426 490 26,200 442 Climbing FlightAware ADS-B
Thu 03:30:27 PM -29.0340 -51.2040 25° Northeast 461 531 26,500 553 Climbing FlightAware ADS-B
Thu 03:31:05 PM -28.9620 -51.1590 29° Northeast 475 547 26,900 1,164 Climbing FlightAware ADS-B
Thu 03:31:34 PM -28.9060 -51.1230 29° Northeast 472 543 27,800 1,606 Climbing FlightAware ADS-B
Thu 03:32:16 PM -28.8240 -51.0720 29° Northeast 473 544 28,800 1,364 Climbing FlightAware ADS-B
Thu 03:33:02 PM -28.7370 -51.0170 29° Northeast 473 544 29,800 1,047 Climbing FlightAware ADS-B
Thu 03:33:42 PM -28.6610 -50.9690 29° Northeast 480 552 30,300 1,171 Climbing FlightAware ADS-B
Thu 03:34:24 PM -28.5790 -50.9170 29° Northeast 477 549 31,400 1,500 Climbing FlightAware ADS-B
Thu 03:35:06 PM -28.4980 -50.8660 29° Northeast 470 541 32,400 1,256 Climbing FlightAware ADS-B
Thu 03:35:50 PM -28.4120 -50.8130 28° Northeast 470 541 33,200 1,116 Climbing FlightAware ADS-B
Thu 03:36:32 PM -28.3330 -50.7630 29° Northeast 469 540 34,000 1,171 Climbing FlightAware ADS-B
Thu 03:37:12 PM -28.2580 -50.7170 28° Northeast 465 535 34,800 1,012 Climbing FlightAware ADS-B
Thu 03:37:55 PM -28.1770 -50.6660 29° Northeast 463 533 35,400 714 Climbing FlightAware ADS-B
Thu 03:38:36 PM -28.0990 -50.6170 29° Northeast 468 539 35,800 519 Climbing FlightAware ADS-B
Thu 03:39:16 PM -28.0220 -50.5690 29° Northeast 474 545 36,100 462 Climbing FlightAware ADS-B
Thu 03:39:54 PM -27.9490 -50.5240 29° Northeast 478 550 36,400 553 Climbing FlightAware ADS-B
Thu 03:40:32 PM -27.8750 -50.4780 29° Northeast 477 549 36,800 439 Climbing FlightAware ADS-B
Thu 03:41:16 PM -27.7890 -50.4250 29° Northeast 477 549 37,000 136 Climbing FlightAware ADS-B
Thu 03:42:00 PM -27.7040 -50.3730 28° Northeast 477 549 37,000  Level FlightAware ADS-B
Thu 03:42:38 PM -27.6290 -50.3270 29° Northeast 479 551 37,000  Level FlightAware ADS-B
Thu 03:43:24 PM -27.5460 -50.2760 29° Northeast 478 550 37,000  Level FlightAware ADS-B
Thu 03:44:04 PM -27.4680 -50.2280 29° Northeast 479 551 37,000  Level FlightAware ADS-B
Thu 03:44:39 PM -27.4040 -50.1880 29° Northeast 481 554 37,000  Level FlightAware ADS-B
Thu 03:46:45 PM -27.1950 -50.0580 29° Northeast 481 554 37,000 -1,393 Level FlightAware ADS-B
Thu 03:47:27 PM -27.0820 -50.0050 23° Northeast 487 560 33,100 -3,977 Descending FlightAware ADS-B
Thu 03:48:11 PM -26.9860 -49.9520 26° Northeast 476 548 31,300 -3,000 Descending FlightAware ADS-B
Thu 03:48:53 PM -26.8940 -49.9010 26° Northeast 454 522 28,800 -2,786 Descending FlightAware ADS-B
Thu 03:49:35 PM -26.8190 -49.8610 25° Northeast 445 512 27,400 -2,025 Descending FlightAware ADS-B
Thu 03:50:13 PM -26.7450 -49.8210 26° Northeast 434 499 26,100 -2,077 Descending FlightAware ADS-B
Thu 03:50:53 PM -26.6750 -49.7820 26° Northeast 423 487 24,700 -2,000 Descending FlightAware ADS-B
Thu 03:51:34 PM -26.6050 -49.7440 26° Northeast 413 475 23,400 -1,875 Descending FlightAware ADS-B
Thu 03:52:13 PM -26.5370 -49.7080 25° Northeast 406 467 22,200 -1,929 Descending FlightAware ADS-B
Thu 03:52:58 PM -26.4620 -49.6670 26° Northeast 399 459 20,700 -1,835 Descending FlightAware ADS-B
Thu 03:53:38 PM -26.4030 -49.6170 37° Northeast 403 464 19,600 -1,694 Descending FlightAware ADS-B
Thu 03:54:23 PM -26.3450 -49.5510 46° Northeast 395 455 18,300 -1,725 Descending FlightAware ADS-B
Thu 03:54:58 PM -26.3000 -49.5000 45° Northeast 389 448 17,300 -1,579 Descending FlightAware ADS-B
Thu 03:55:39 PM -26.2510 -49.4440 46° Northeast 383 441 16,300 -1,575 Descending FlightAware ADS-B
Thu 03:56:18 PM -26.2010 -49.3880 45° Northeast 377 434 15,200 -1,596 Descending FlightAware ADS-B
Thu 03:57:13 PM -26.1370 -49.3160 45° Northeast 371 427 13,800 -1,576 Descending FlightAware ADS-B
Thu 03:57:57 PM -26.0820 -49.2540 45° Northeast 369 425 12,600 -1,618 Descending FlightAware ADS-B
Thu 03:58:42 PM -26.0290 -49.1940 45° Northeast 367 422 11,400 -1,553 Descending FlightAware ADS-B
Thu 03:59:22 PM -25.9800 -49.1390 45° Northeast 363 418 10,400 -1,275 Descending FlightAware ADS-B
Thu 04:00:02 PM -25.9320 -49.0950 40° Northeast 335 386 9,700 -1,200 Descending FlightAware ADS-B
Thu 04:00:32 PM -25.8910 -49.0720 27° Northeast 319 367 9,000 -1,200 Descending FlightAware ADS-B
Thu 04:01:02 PM -25.8520 -49.0500 27° Northeast 312 359 8,500 -873 Descending FlightAware ADS-B
Thu 04:01:27 PM -25.8210 -49.0320 28° Northeast 313 360 8,200 -878 Descending FlightAware ADS-B
Thu 04:01:43 PM -25.8020 -49.0210 28° Northeast 311 358 7,900 -933 Descending FlightAware ADS-B
Thu 04:02:12 PM -25.7640 -49.0000 26° Northeast 305 351 7,500 -814 Descending FlightAware ADS-B
Thu 04:02:42 PM -25.7280 -48.9800 27° Northeast 284 327 7,100 -857 Descending FlightAware ADS-B
Thu 04:02:47 PM -25.7210 -48.9790 North 268 308 7,000 -857 Descending FlightAware ADS-B
Thu 04:03:17 PM -25.6920 -48.9930 336° Northwest 223 257 6,600 -800 Descending FlightAware ADS-B
Thu 04:03:47 PM -25.6710 -49.0160 315° West 211 243 6,200 -900 Descending FlightAware ADS-B
Thu 04:04:17 PM -25.6530 -49.0360 315° West 205 236 5,700 -764 Descending FlightAware ADS-B
Thu 04:04:42 PM -25.6350 -49.0560 315° West 190 219 5,500 -655 Descending FlightAware ADS-B
Thu 04:05:12 PM -25.6180 -49.0750 315° West 173 199 5,100 -800 Descending FlightAware ADS-B
Thu 04:05:27 PM -25.6100 -49.0840 315° West 169 194 4,900 -667 Descending FlightAware ADS-B
Thu 04:05:57 PM -25.5960 -49.1000 314° West 145 167 4,600 -720 Descending FlightAware ADS-B
Thu 04:06:17 PM -25.5860 -49.1110 315° West 139 160 4,300 -720 Descending FlightAware ADS-B
Thu 04:06:47 PM -25.5730 -49.1260 314° West 140 161 4,000 -655 Descending FlightAware ADS-B
Thu 04:07:12 PM -25.5620 -49.1380 315° West 140 161 3,700 -720 Descending FlightAware ADS-B
Thu 04:07:37 PM -25.5510 -49.1500 315° West 142 163 3,400 -720 Descending FlightAware ADS-B
Thu 04:08:31 PM -25.5280 -49.1760 314° West 46 53 -3,778 Descending FlightAware ADS-B
Thu 04:09:00 PM -25.5280 -49.1770 270° West 24 28  Level FlightAware ADS-B
Thu 04:09:19 PM -25.5280 -49.1780 270° West 29 33  Level FlightAware ADS-B
Thu 04:09:35 PM -25.5280 -49.1790 270° West 16 18  Level FlightAware ADS-B
Thu 04:10:17 PM -25.5300 -49.1790 180° South 33 38  Level FlightAware ADS-B
Thu 04:10:28 PM -25.5300 -49.1780 90° East 15 17  Level FlightAware ADS-B
Thu 04:10:45 PM -25.5300 -49.1770 90° East 34 39  Level FlightAware ADS-B
Thu 04:10:57 PM -25.5300 -49.1760 90° East 33 38  Level FlightAware ADS-B
Thu 04:11:41 PM -25.5320 -49.1740 138° Southeast 18 21  Level FlightAware ADS-B
Thu 04:12:17 PM -25.5340 -49.1730 156° South 28 32  Level FlightAware ADS-B
Thu 04:12:45 PM -25.5340 -49.1770 270° West 28 32  Level FlightAware ADS-B

Login

Don't have an account? Register now (free) for customized features, flight alerts, and more!